Dwarf, KY (41739)

11:35 AM EDT on August 20, 2014 (GMT -0400)
KKYJACKS3 | Change Station
CLOSE
Current Station
Personal Weather Station
Location: Talbert, KY
Elevation: 994 ft
Nearby Weather Stations

Elev 994 ft 37.41 °N, 83.42 °W | Updated 15 seconds ago

Mostly Cloudy
Mostly Cloudy
76.5 °F
Feels Like 77 °F
N
0.0
Wind Variable Wind from North
Gusts 0.0 mph

Today
High -- | Low -- °F
--% Chance of Precip.
Yesterday
High -- | Low -- °F
Precip. -- in
6:52 AM 8:18 PM
Waning Crescent, 21% visible
Pressure 30.03 in
Visibility 10.0 miles
Clouds Mostly Cloudy 2400 ft
Heat Index 77 °F
Dew Point 73 °F
Humidity 88%
Rainfall 1.35 in
Snow Depth Not available.
UV 4 out of 12
Pollen 7.60 out of 12
Air Quality Not available.
Flu Activity Not available.
SPECI KJKL 201505Z AUTO 00000KT 10SM BKN024 23/21 A3003 RMK AO2 T02330206

More Conditions Fewer Conditions

Pressure 30.03 in
Visibility 10.0 miles
Clouds Mostly Cloudy 2400 ft
Heat Index 77 °F
Dew Point 73 °F
Humidity 88%
Rainfall 1.35 in
Snow Depth Not available.
UV 4 out of 12
Pollen 7.60 out of 12
Air Quality Not available.
Flu Activity Not available.
SPECI KJKL 201505Z AUTO 00000KT 10SM BKN024 23/21 A3003 RMK AO2 T02330206

More Conditions Fewer Conditions

10-Day Weather Forecast

Almanac

Astronomy

Aug. 20, 2014 Rise Set
Actual Time 6:52 AM EDT 8:18 PM EDT
Civil Twilight 6:25 AM EDT 8:45 PM EDT
Nautical Twilight 5:52 AM EDT 9:18 PM EDT
Astronomical Twilight 5:18 AM EDT 9:52 PM EDT
Moon 2:34 AM EDT 5:00 PM EDT
Length of Visible Light 14h 19m
Length of Day
13h 25m
Tomorrow will be 2m 11s shorter.
Waning Crescent, 21% of the Moon is Illuminated
Today
Waning Crescent
Aug 25
New
Sep 2
First Quarter
Sep 8
Full
Sep 15
Last Quarter

Today's Extremes

State Highs State Lows

Community

WunderPhotos

Upload Photos

1,745,667 photos uploaded!

WunderBlogs® & News

Nearby

Snow Depth

Station Depth Elevation
No new snow has been reported.

Earthquake Activity

City Distance Mag. Time & Date
No recent earthquake activity has been reported nearby.
Minimum magnitude displayed is 2.5.

Coastal Water Temperatures

Place Temperature
No Stations Reporting

Nearby Weather Stations